sensor_id;sensor_type;location;lat;lon;timestamp;temperature;humidity
20726;DHT22;10524;48.132;8.518;2024-02-21T00:00:46;-0.70;99.90
20726;DHT22;10524;48.132;8.518;2024-02-21T00:03:12;-0.60;99.90
20726;DHT22;10524;48.132;8.518;2024-02-21T00:05:38;-0.60;99.90
20726;DHT22;10524;48.132;8.518;2024-02-21T00:08:04;-0.50;99.90
20726;DHT22;10524;48.132;8.518;2024-02-21T00:10:30;-0.30;99.90
20726;DHT22;10524;48.132;8.518;2024-02-21T00:12:58;-0.30;99.90
20726;DHT22;10524;48.132;8.518;2024-02-21T00:15:25;-0.20;99.90
20726;DHT22;10524;48.132;8.518;2024-02-21T00:17:51;-0.30;99.90
20726;DHT22;10524;48.132;8.518;2024-02-21T00:20:17;-0.20;99.90
20726;DHT22;10524;48.132;8.518;2024-02-21T00:22:43;-0.20;99.90
20726;DHT22;10524;48.132;8.518;2024-02-21T00:25:09;-0.10;99.90
20726;DHT22;10524;48.132;8.518;2024-02-21T00:27:35;0.00;99.90
20726;DHT22;10524;48.132;8.518;2024-02-21T00:30:02;0.10;99.90
20726;DHT22;10524;48.132;8.518;2024-02-21T00:32:27;0.10;99.90
20726;DHT22;10524;48.132;8.518;2024-02-21T00:34:53;0.10;99.90
20726;DHT22;10524;48.132;8.518;2024-02-21T00:37:19;0.00;99.90
20726;DHT22;10524;48.132;8.518;2024-02-21T00:39:44;0.00;99.90
20726;DHT22;10524;48.132;8.518;2024-02-21T00:42:10;0.00;99.90
20726;DHT22;10524;48.132;8.518;2024-02-21T00:44:36;0.00;99.90
20726;DHT22;10524;48.132;8.518;2024-02-21T00:47:01;0.00;99.90
20726;DHT22;10524;48.132;8.518;2024-02-21T00:49:27;0.00;99.90
20726;DHT22;10524;48.132;8.518;2024-02-21T00:51:53;0.10;99.90
20726;DHT22;10524;48.132;8.518;2024-02-21T00:54:19;0.10;99.90
20726;DHT22;10524;48.132;8.518;2024-02-21T00:56:44;0.30;99.90
20726;DHT22;10524;48.132;8.518;2024-02-21T00:59:10;0.40;99.90
20726;DHT22;10524;48.132;8.518;2024-02-21T01:01:36;0.50;99.90
20726;DHT22;10524;48.132;8.518;2024-02-21T01:04:01;0.50;99.90
20726;DHT22;10524;48.132;8.518;2024-02-21T01:06:27;0.50;99.90
20726;DHT22;10524;48.132;8.518;2024-02-21T01:08:53;0.40;99.90
20726;DHT22;10524;48.132;8.518;2024-02-21T01:11:19;0.40;99.90
20726;DHT22;10524;48.132;8.518;2024-02-21T01:13:44;0.40;99.90
20726;DHT22;10524;48.132;8.518;2024-02-21T01:16:10;0.40;99.90
20726;DHT22;10524;48.132;8.518;2024-02-21T01:18:39;0.30;99.90
20726;DHT22;10524;48.132;8.518;2024-02-21T01:21:06;0.30;99.90
20726;DHT22;10524;48.132;8.518;2024-02-21T01:23:36;0.30;99.90
20726;DHT22;10524;48.132;8.518;2024-02-21T01:26:03;0.30;99.90
20726;DHT22;10524;48.132;8.518;2024-02-21T01:28:29;0.30;99.90
20726;DHT22;10524;48.132;8.518;2024-02-21T01:30:56;0.40;99.90
20726;DHT22;10524;48.132;8.518;2024-02-21T01:33:22;0.40;99.90
20726;DHT22;10524;48.132;8.518;2024-02-21T01:35:48;0.40;99.90
20726;DHT22;10524;48.132;8.518;2024-02-21T01:38:15;0.40;99.90
20726;DHT22;10524;48.132;8.518;2024-02-21T01:40:40;0.50;99.90
20726;DHT22;10524;48.132;8.518;2024-02-21T01:43:16;0.50;99.90
20726;DHT22;10524;48.132;8.518;2024-02-21T01:45:44;0.40;99.90
20726;DHT22;10524;48.132;8.518;2024-02-21T01:48:12;0.30;99.90
20726;DHT22;10524;48.132;8.518;2024-02-21T01:50:39;0.20;99.90
20726;DHT22;10524;48.132;8.518;2024-02-21T01:53:05;0.20;99.90
20726;DHT22;10524;48.132;8.518;2024-02-21T01:55:31;0.10;99.90
20726;DHT22;10524;48.132;8.518;2024-02-21T01:57:57;0.10;99.90
20726;DHT22;10524;48.132;8.518;2024-02-21T02:00:23;0.00;99.90
20726;DHT22;10524;48.132;8.518;2024-02-21T02:02:49;0.10;99.90
20726;DHT22;10524;48.132;8.518;2024-02-21T02:05:16;0.10;99.90
20726;DHT22;10524;48.132;8.518;2024-02-21T02:07:44;0.10;99.90
20726;DHT22;10524;48.132;8.518;2024-02-21T02:10:09;0.10;99.90
20726;DHT22;10524;48.132;8.518;2024-02-21T02:12:36;0.10;99.90
20726;DHT22;10524;48.132;8.518;2024-02-21T02:15:03;0.20;99.90
20726;DHT22;10524;48.132;8.518;2024-02-21T02:17:31;0.30;99.90
20726;DHT22;10524;48.132;8.518;2024-02-21T02:19:57;0.50;99.90
20726;DHT22;10524;48.132;8.518;2024-02-21T02:22:28;0.60;99.90
20726;DHT22;10524;48.132;8.518;2024-02-21T02:24:54;0.50;99.90
20726;DHT22;10524;48.132;8.518;2024-02-21T02:27:20;0.60;99.90
20726;DHT22;10524;48.132;8.518;2024-02-21T02:29:48;0.60;99.90
20726;DHT22;10524;48.132;8.518;2024-02-21T02:32:14;0.60;99.90
20726;DHT22;10524;48.132;8.518;2024-02-21T02:34:40;0.50;99.90
20726;DHT22;10524;48.132;8.518;2024-02-21T02:37:06;0.40;99.90
20726;DHT22;10524;48.132;8.518;2024-02-21T02:39:31;0.30;99.90
20726;DHT22;10524;48.132;8.518;2024-02-21T02:41:57;0.20;99.90
20726;DHT22;10524;48.132;8.518;2024-02-21T02:44:23;0.20;99.90
20726;DHT22;10524;48.132;8.518;2024-02-21T02:46:49;0.30;99.90
20726;DHT22;10524;48.132;8.518;2024-02-21T02:49:15;0.30;99.90
20726;DHT22;10524;48.132;8.518;2024-02-21T02:51:42;0.40;99.90
20726;DHT22;10524;48.132;8.518;2024-02-21T02:54:08;0.50;99.90
20726;DHT22;10524;48.132;8.518;2024-02-21T02:56:34;0.60;99.90
20726;DHT22;10524;48.132;8.518;2024-02-21T02:58:59;0.70;99.90
20726;DHT22;10524;48.132;8.518;2024-02-21T03:01:25;0.80;99.90
20726;DHT22;10524;48.132;8.518;2024-02-21T03:03:51;0.90;99.90
20726;DHT22;10524;48.132;8.518;2024-02-21T03:06:17;1.00;99.90
20726;DHT22;10524;48.132;8.518;2024-02-21T03:08:43;1.10;99.90
20726;DHT22;10524;48.132;8.518;2024-02-21T03:11:08;1.20;99.90
20726;DHT22;10524;48.132;8.518;2024-02-21T03:13:36;1.20;99.90
20726;DHT22;10524;48.132;8.518;2024-02-21T03:16:02;1.10;99.90
20726;DHT22;10524;48.132;8.518;2024-02-21T03:18:28;0.90;99.90
20726;DHT22;10524;48.132;8.518;2024-02-21T03:20:53;0.80;99.90
20726;DHT22;10524;48.132;8.518;2024-02-21T03:23:19;0.70;99.90
20726;DHT22;10524;48.132;8.518;2024-02-21T03:25:45;0.80;99.90
20726;DHT22;10524;48.132;8.518;2024-02-21T03:28:11;0.70;99.90
20726;DHT22;10524;48.132;8.518;2024-02-21T03:30:37;0.60;99.90
20726;DHT22;10524;48.132;8.518;2024-02-21T03:33:03;0.50;99.90
20726;DHT22;10524;48.132;8.518;2024-02-21T03:35:28;0.30;99.90
20726;DHT22;10524;48.132;8.518;2024-02-21T03:37:54;0.20;99.90
20726;DHT22;10524;48.132;8.518;2024-02-21T03:40:20;0.20;99.90
20726;DHT22;10524;48.132;8.518;2024-02-21T03:42:46;0.10;99.90
20726;DHT22;10524;48.132;8.518;2024-02-21T03:45:11;0.10;99.90
20726;DHT22;10524;48.132;8.518;2024-02-21T03:47:37;0.10;99.90
20726;DHT22;10524;48.132;8.518;2024-02-21T03:50:04;0.10;99.90
20726;DHT22;10524;48.132;8.518;2024-02-21T03:52:30;0.10;99.90
20726;DHT22;10524;48.132;8.518;2024-02-21T03:54:56;0.10;99.90
20726;DHT22;10524;48.132;8.518;2024-02-21T03:57:22;0.20;99.90
20726;DHT22;10524;48.132;8.518;2024-02-21T03:59:50;0.20;99.90
20726;DHT22;10524;48.132;8.518;2024-02-21T04:02:16;0.10;99.90
20726;DHT22;10524;48.132;8.518;2024-02-21T04:04:44;0.20;99.90
20726;DHT22;10524;48.132;8.518;2024-02-21T04:07:13;0.20;99.90
20726;DHT22;10524;48.132;8.518;2024-02-21T04:09:38;0.10;99.90
20726;DHT22;10524;48.132;8.518;2024-02-21T04:12:05;0.00;99.90
20726;DHT22;10524;48.132;8.518;2024-02-21T04:14:36;-0.10;99.90
20726;DHT22;10524;48.132;8.518;2024-02-21T04:17:02;-0.10;99.90
20726;DHT22;10524;48.132;8.518;2024-02-21T04:19:28;0.00;99.90
20726;DHT22;10524;48.132;8.518;2024-02-21T04:21:56;0.00;99.90
20726;DHT22;10524;48.132;8.518;2024-02-21T04:24:22;0.00;99.90
20726;DHT22;10524;48.132;8.518;2024-02-21T04:26:47;-0.10;99.90
20726;DHT22;10524;48.132;8.518;2024-02-21T04:29:13;-0.10;99.90
20726;DHT22;10524;48.132;8.518;2024-02-21T04:31:39;-0.10;99.90
20726;DHT22;10524;48.132;8.518;2024-02-21T04:34:06;-0.10;99.90
20726;DHT22;10524;48.132;8.518;2024-02-21T04:36:32;-0.10;99.90
20726;DHT22;10524;48.132;8.518;2024-02-21T04:38:58;-0.10;99.90
20726;DHT22;10524;48.132;8.518;2024-02-21T04:41:24;-0.20;99.90
20726;DHT22;10524;48.132;8.518;2024-02-21T04:43:50;-0.10;99.90
20726;DHT22;10524;48.132;8.518;2024-02-21T04:46:15;-0.10;99.90
20726;DHT22;10524;48.132;8.518;2024-02-21T04:48:41;-0.10;99.90
20726;DHT22;10524;48.132;8.518;2024-02-21T04:51:07;-0.10;99.90
20726;DHT22;10524;48.132;8.518;2024-02-21T04:53:33;-0.10;99.90
20726;DHT22;10524;48.132;8.518;2024-02-21T04:55:58;-0.10;99.90
20726;DHT22;10524;48.132;8.518;2024-02-21T04:58:24;0.10;99.90
20726;DHT22;10524;48.132;8.518;2024-02-21T05:00:51;0.30;99.90
20726;DHT22;10524;48.132;8.518;2024-02-21T05:03:17;0.50;99.90
20726;DHT22;10524;48.132;8.518;2024-02-21T05:05:59;0.60;99.90
20726;DHT22;10524;48.132;8.518;2024-02-21T05:08:24;0.60;99.90
20726;DHT22;10524;48.132;8.518;2024-02-21T05:10:50;0.60;99.90
20726;DHT22;10524;48.132;8.518;2024-02-21T05:13:16;0.70;99.90
20726;DHT22;10524;48.132;8.518;2024-02-21T05:15:42;0.60;99.90
20726;DHT22;10524;48.132;8.518;2024-02-21T05:18:07;0.60;99.90
20726;DHT22;10524;48.132;8.518;2024-02-21T05:20:33;0.50;99.90
20726;DHT22;10524;48.132;8.518;2024-02-21T05:22:59;0.60;99.90
20726;DHT22;10524;48.132;8.518;2024-02-21T05:25:25;0.60;99.90
20726;DHT22;10524;48.132;8.518;2024-02-21T05:27:51;0.80;99.90
20726;DHT22;10524;48.132;8.518;2024-02-21T05:30:19;0.80;99.90
20726;DHT22;10524;48.132;8.518;2024-02-21T05:32:45;0.90;99.90
20726;DHT22;10524;48.132;8.518;2024-02-21T05:35:11;1.00;99.90
20726;DHT22;10524;48.132;8.518;2024-02-21T05:37:37;1.10;99.90
20726;DHT22;10524;48.132;8.518;2024-02-21T05:40:04;1.10;99.90
20726;DHT22;10524;48.132;8.518;2024-02-21T05:42:30;1.20;99.90
20726;DHT22;10524;48.132;8.518;2024-02-21T05:44:56;1.10;99.90
20726;DHT22;10524;48.132;8.518;2024-02-21T05:47:21;1.20;99.90
20726;DHT22;10524;48.132;8.518;2024-02-21T05:49:47;1.20;99.90
20726;DHT22;10524;48.132;8.518;2024-02-21T05:52:13;1.30;99.90
20726;DHT22;10524;48.132;8.518;2024-02-21T05:54:39;1.30;99.90
20726;DHT22;10524;48.132;8.518;2024-02-21T05:57:06;1.20;99.90
20726;DHT22;10524;48.132;8.518;2024-02-21T05:59:32;1.20;99.90
20726;DHT22;10524;48.132;8.518;2024-02-21T06:01:58;1.20;99.90
20726;DHT22;10524;48.132;8.518;2024-02-21T06:04:24;1.20;99.90
20726;DHT22;10524;48.132;8.518;2024-02-21T06:06:49;1.30;99.90
20726;DHT22;10524;48.132;8.518;2024-02-21T06:09:15;1.30;99.90
20726;DHT22;10524;48.132;8.518;2024-02-21T06:11:41;1.30;99.90
20726;DHT22;10524;48.132;8.518;2024-02-21T06:14:07;1.20;99.90
20726;DHT22;10524;48.132;8.518;2024-02-21T06:16:32;1.20;99.90
20726;DHT22;10524;48.132;8.518;2024-02-21T06:18:58;1.10;99.90
20726;DHT22;10524;48.132;8.518;2024-02-21T06:21:29;1.00;99.90
20726;DHT22;10524;48.132;8.518;2024-02-21T06:23:54;1.00;99.90
20726;DHT22;10524;48.132;8.518;2024-02-21T06:26:20;0.90;99.90
20726;DHT22;10524;48.132;8.518;2024-02-21T06:28:46;0.80;99.90
20726;DHT22;10524;48.132;8.518;2024-02-21T06:31:12;0.60;99.90
20726;DHT22;10524;48.132;8.518;2024-02-21T06:33:38;0.40;99.90
20726;DHT22;10524;48.132;8.518;2024-02-21T06:36:04;0.30;99.90
20726;DHT22;10524;48.132;8.518;2024-02-21T06:38:29;0.20;99.90
20726;DHT22;10524;48.132;8.518;2024-02-21T06:40:55;0.20;99.90
20726;DHT22;10524;48.132;8.518;2024-02-21T06:43:21;0.10;99.90
20726;DHT22;10524;48.132;8.518;2024-02-21T06:45:47;0.20;99.90
20726;DHT22;10524;48.132;8.518;2024-02-21T06:48:16;0.20;99.90
20726;DHT22;10524;48.132;8.518;2024-02-21T06:50:42;0.30;99.90
20726;DHT22;10524;48.132;8.518;2024-02-21T06:53:07;0.50;99.90
20726;DHT22;10524;48.132;8.518;2024-02-21T06:55:33;0.60;99.90
20726;DHT22;10524;48.132;8.518;2024-02-21T06:57:59;0.80;99.90
20726;DHT22;10524;48.132;8.518;2024-02-21T07:00:25;0.90;99.90
20726;DHT22;10524;48.132;8.518;2024-02-21T07:02:52;1.10;99.90
20726;DHT22;10524;48.132;8.518;2024-02-21T07:05:17;1.20;99.90
20726;DHT22;10524;48.132;8.518;2024-02-21T07:07:43;1.50;99.90
20726;DHT22;10524;48.132;8.518;2024-02-21T07:10:09;1.60;99.90
20726;DHT22;10524;48.132;8.518;2024-02-21T07:12:36;1.70;99.90
20726;DHT22;10524;48.132;8.518;2024-02-21T07:15:04;1.90;99.90
20726;DHT22;10524;48.132;8.518;2024-02-21T07:17:30;2.30;99.90
20726;DHT22;10524;48.132;8.518;2024-02-21T07:19:56;2.50;99.90
20726;DHT22;10524;48.132;8.518;2024-02-21T07:22:24;2.70;99.90
20726;DHT22;10524;48.132;8.518;2024-02-21T07:24:50;3.00;99.90
20726;DHT22;10524;48.132;8.518;2024-02-21T07:27:16;3.40;99.90
20726;DHT22;10524;48.132;8.518;2024-02-21T07:29:42;4.20;99.90
20726;DHT22;10524;48.132;8.518;2024-02-21T07:32:09;5.30;99.90
20726;DHT22;10524;48.132;8.518;2024-02-21T07:34:35;6.40;99.90
20726;DHT22;10524;48.132;8.518;2024-02-21T07:37:00;7.40;99.90
20726;DHT22;10524;48.132;8.518;2024-02-21T07:39:26;8.10;99.90
20726;DHT22;10524;48.132;8.518;2024-02-21T07:41:52;8.70;99.90
20726;DHT22;10524;48.132;8.518;2024-02-21T07:44:18;8.90;99.90
20726;DHT22;10524;48.132;8.518;2024-02-21T07:46:44;8.50;99.90
20726;DHT22;10524;48.132;8.518;2024-02-21T07:49:09;8.60;99.90
20726;DHT22;10524;48.132;8.518;2024-02-21T07:51:35;8.70;99.90
20726;DHT22;10524;48.132;8.518;2024-02-21T07:54:02;9.10;99.90
20726;DHT22;10524;48.132;8.518;2024-02-21T07:56:29;9.00;99.90
20726;DHT22;10524;48.132;8.518;2024-02-21T07:58:55;8.60;99.90
20726;DHT22;10524;48.132;8.518;2024-02-21T08:01:21;8.40;99.90
20726;DHT22;10524;48.132;8.518;2024-02-21T08:03:47;8.30;99.90
20726;DHT22;10524;48.132;8.518;2024-02-21T08:06:13;8.10;99.90
20726;DHT22;10524;48.132;8.518;2024-02-21T08:08:39;8.20;99.90
20726;DHT22;10524;48.132;8.518;2024-02-21T08:11:05;8.40;99.90
20726;DHT22;10524;48.132;8.518;2024-02-21T08:13:31;8.60;99.90
20726;DHT22;10524;48.132;8.518;2024-02-21T08:15:57;8.20;99.90
20726;DHT22;10524;48.132;8.518;2024-02-21T08:18:23;7.80;99.90
20726;DHT22;10524;48.132;8.518;2024-02-21T08:20:49;7.60;99.90
20726;DHT22;10524;48.132;8.518;2024-02-21T08:23:18;7.60;99.90
20726;DHT22;10524;48.132;8.518;2024-02-21T08:25:44;8.00;99.90
20726;DHT22;10524;48.132;8.518;2024-02-21T08:28:10;8.80;99.90
20726;DHT22;10524;48.132;8.518;2024-02-21T08:30:36;9.80;99.90
20726;DHT22;10524;48.132;8.518;2024-02-21T08:33:02;10.20;99.90
20726;DHT22;10524;48.132;8.518;2024-02-21T08:35:29;10.40;99.90
20726;DHT22;10524;48.132;8.518;2024-02-21T08:37:54;10.10;99.90
20726;DHT22;10524;48.132;8.518;2024-02-21T08:40:20;9.90;99.90
20726;DHT22;10524;48.132;8.518;2024-02-21T08:42:49;9.80;99.90
20726;DHT22;10524;48.132;8.518;2024-02-21T08:45:15;9.30;99.90
20726;DHT22;10524;48.132;8.518;2024-02-21T08:47:41;9.20;99.90
20726;DHT22;10524;48.132;8.518;2024-02-21T08:50:07;9.40;99.90
20726;DHT22;10524;48.132;8.518;2024-02-21T08:52:35;9.60;99.90
20726;DHT22;10524;48.132;8.518;2024-02-21T08:55:01;9.50;99.90
20726;DHT22;10524;48.132;8.518;2024-02-21T08:57:27;9.80;99.90
20726;DHT22;10524;48.132;8.518;2024-02-21T08:59:53;10.00;99.90
20726;DHT22;10524;48.132;8.518;2024-02-21T09:02:18;10.40;99.90
20726;DHT22;10524;48.132;8.518;2024-02-21T09:04:44;10.10;99.90
20726;DHT22;10524;48.132;8.518;2024-02-21T09:07:10;10.00;99.90
20726;DHT22;10524;48.132;8.518;2024-02-21T09:09:36;10.00;99.90
20726;DHT22;10524;48.132;8.518;2024-02-21T09:12:07;10.00;99.90
20726;DHT22;10524;48.132;8.518;2024-02-21T09:14:34;10.00;99.90
20726;DHT22;10524;48.132;8.518;2024-02-21T09:17:00;9.80;99.90
20726;DHT22;10524;48.132;8.518;2024-02-21T09:19:25;9.70;99.90
20726;DHT22;10524;48.132;8.518;2024-02-21T09:21:51;9.20;99.90
20726;DHT22;10524;48.132;8.518;2024-02-21T09:24:17;9.40;99.90
20726;DHT22;10524;48.132;8.518;2024-02-21T09:26:43;9.60;99.90
20726;DHT22;10524;48.132;8.518;2024-02-21T09:29:09;9.60;99.90
20726;DHT22;10524;48.132;8.518;2024-02-21T09:31:35;10.10;99.90
20726;DHT22;10524;48.132;8.518;2024-02-21T09:34:00;10.90;99.90
20726;DHT22;10524;48.132;8.518;2024-02-21T09:36:26;11.30;99.90
20726;DHT22;10524;48.132;8.518;2024-02-21T09:38:52;12.10;99.90
20726;DHT22;10524;48.132;8.518;2024-02-21T09:41:26;12.70;99.90
20726;DHT22;10524;48.132;8.518;2024-02-21T09:43:53;12.40;99.90
20726;DHT22;10524;48.132;8.518;2024-02-21T09:46:24;12.40;99.90
20726;DHT22;10524;48.132;8.518;2024-02-21T09:51:47;11.70;99.90
20726;DHT22;10524;48.132;8.518;2024-02-21T09:54:15;11.20;99.90
20726;DHT22;10524;48.132;8.518;2024-02-21T09:56:41;11.20;99.90
20726;DHT22;10524;48.132;8.518;2024-02-21T09:59:07;11.10;99.90
20726;DHT22;10524;48.132;8.518;2024-02-21T10:01:33;11.20;99.90
20726;DHT22;10524;48.132;8.518;2024-02-21T10:03:59;11.30;99.90
20726;DHT22;10524;48.132;8.518;2024-02-21T10:06:25;11.30;99.90
20726;DHT22;10524;48.132;8.518;2024-02-21T10:08:54;11.30;99.90
20726;DHT22;10524;48.132;8.518;2024-02-21T10:11:23;11.20;99.90
20726;DHT22;10524;48.132;8.518;2024-02-21T10:13:50;11.10;99.90
20726;DHT22;10524;48.132;8.518;2024-02-21T10:16:15;11.20;99.90
20726;DHT22;10524;48.132;8.518;2024-02-21T10:18:41;11.20;99.90
20726;DHT22;10524;48.132;8.518;2024-02-21T10:21:07;11.20;99.90
20726;DHT22;10524;48.132;8.518;2024-02-21T10:26:09;11.30;99.90
20726;DHT22;10524;48.132;8.518;2024-02-21T10:28:35;11.70;99.90
20726;DHT22;10524;48.132;8.518;2024-02-21T10:31:01;11.20;99.90
20726;DHT22;10524;48.132;8.518;2024-02-21T10:33:26;11.50;99.90
20726;DHT22;10524;48.132;8.518;2024-02-21T10:35:53;11.80;99.90
20726;DHT22;10524;48.132;8.518;2024-02-21T10:38:19;11.80;99.90
20726;DHT22;10524;48.132;8.518;2024-02-21T10:40:46;11.70;99.90
20726;DHT22;10524;48.132;8.518;2024-02-21T10:43:14;11.60;99.90
20726;DHT22;10524;48.132;8.518;2024-02-21T10:45:41;11.40;99.90
20726;DHT22;10524;48.132;8.518;2024-02-21T10:48:15;11.20;99.90
20726;DHT22;10524;48.132;8.518;2024-02-21T10:58:46;11.10;99.90
20726;DHT22;10524;48.132;8.518;2024-02-21T11:01:13;11.30;99.90
20726;DHT22;10524;48.132;8.518;2024-02-21T11:03:42;11.40;99.90
20726;DHT22;10524;48.132;8.518;2024-02-21T11:06:11;11.00;99.90
20726;DHT22;10524;48.132;8.518;2024-02-21T11:08:37;11.00;99.90
20726;DHT22;10524;48.132;8.518;2024-02-21T11:11:05;11.20;99.90
20726;DHT22;10524;48.132;8.518;2024-02-21T11:13:40;11.50;99.90
20726;DHT22;10524;48.132;8.518;2024-02-21T11:16:10;12.10;99.90
20726;DHT22;10524;48.132;8.518;2024-02-21T11:18:39;12.30;99.90
20726;DHT22;10524;48.132;8.518;2024-02-21T11:21:05;12.00;99.90
20726;DHT22;10524;48.132;8.518;2024-02-21T11:23:31;12.00;99.90
20726;DHT22;10524;48.132;8.518;2024-02-21T11:26:10;11.60;99.90
20726;DHT22;10524;48.132;8.518;2024-02-21T11:28:44;11.90;99.90
20726;DHT22;10524;48.132;8.518;2024-02-21T11:31:14;12.10;99.90
20726;DHT22;10524;48.132;8.518;2024-02-21T11:33:40;11.90;99.90
20726;DHT22;10524;48.132;8.518;2024-02-21T11:36:08;12.30;99.90
20726;DHT22;10524;48.132;8.518;2024-02-21T11:38:34;12.20;99.90
20726;DHT22;10524;48.132;8.518;2024-02-21T11:41:00;12.10;99.90
20726;DHT22;10524;48.132;8.518;2024-02-21T11:43:25;12.30;99.90
20726;DHT22;10524;48.132;8.518;2024-02-21T11:46:01;12.50;99.90
20726;DHT22;10524;48.132;8.518;2024-02-21T11:48:30;12.20;99.90
20726;DHT22;10524;48.132;8.518;2024-02-21T11:50:57;12.40;99.90
20726;DHT22;10524;48.132;8.518;2024-02-21T11:53:22;12.30;99.90
20726;DHT22;10524;48.132;8.518;2024-02-21T11:55:49;12.00;99.90
20726;DHT22;10524;48.132;8.518;2024-02-21T11:58:15;11.90;99.90
20726;DHT22;10524;48.132;8.518;2024-02-21T12:00:41;12.00;99.90
20726;DHT22;10524;48.132;8.518;2024-02-21T12:03:08;11.80;99.90
20726;DHT22;10524;48.132;8.518;2024-02-21T12:05:34;12.30;99.90
20726;DHT22;10524;48.132;8.518;2024-02-21T12:08:00;12.30;99.90
20726;DHT22;10524;48.132;8.518;2024-02-21T12:10:26;12.60;99.90
20726;DHT22;10524;48.132;8.518;2024-02-21T12:12:53;12.60;99.90
20726;DHT22;10524;48.132;8.518;2024-02-21T12:15:23;12.90;99.90
20726;DHT22;10524;48.132;8.518;2024-02-21T12:17:49;12.20;99.90
20726;DHT22;10524;48.132;8.518;2024-02-21T12:20:17;11.90;99.90
20726;DHT22;10524;48.132;8.518;2024-02-21T12:22:45;11.70;99.90
20726;DHT22;10524;48.132;8.518;2024-02-21T12:25:18;11.60;99.90
20726;DHT22;10524;48.132;8.518;2024-02-21T12:27:45;11.50;99.90
20726;DHT22;10524;48.132;8.518;2024-02-21T12:30:11;11.50;99.90
20726;DHT22;10524;48.132;8.518;2024-02-21T12:32:37;11.70;99.90
20726;DHT22;10524;48.132;8.518;2024-02-21T12:35:03;11.70;99.90
20726;DHT22;10524;48.132;8.518;2024-02-21T12:37:29;11.50;99.90
20726;DHT22;10524;48.132;8.518;2024-02-21T12:39:55;11.20;99.90
20726;DHT22;10524;48.132;8.518;2024-02-21T12:42:20;11.30;99.90
20726;DHT22;10524;48.132;8.518;2024-02-21T12:44:47;11.40;99.90
20726;DHT22;10524;48.132;8.518;2024-02-21T12:47:12;11.20;99.90
20726;DHT22;10524;48.132;8.518;2024-02-21T12:49:38;11.10;99.90
20726;DHT22;10524;48.132;8.518;2024-02-21T12:52:04;11.10;99.90
20726;DHT22;10524;48.132;8.518;2024-02-21T12:54:30;11.30;99.90
20726;DHT22;10524;48.132;8.518;2024-02-21T12:56:56;11.40;99.90
20726;DHT22;10524;48.132;8.518;2024-02-21T12:59:22;11.50;99.90
20726;DHT22;10524;48.132;8.518;2024-02-21T13:01:48;11.40;99.90
20726;DHT22;10524;48.132;8.518;2024-02-21T13:04:14;11.60;99.90
20726;DHT22;10524;48.132;8.518;2024-02-21T13:06:40;11.70;99.90
20726;DHT22;10524;48.132;8.518;2024-02-21T13:09:05;11.70;99.90
20726;DHT22;10524;48.132;8.518;2024-02-21T13:11:34;11.30;99.90
20726;DHT22;10524;48.132;8.518;2024-02-21T13:14:00;11.20;99.90
20726;DHT22;10524;48.132;8.518;2024-02-21T13:16:26;11.40;99.90
20726;DHT22;10524;48.132;8.518;2024-02-21T13:18:52;11.50;99.90
20726;DHT22;10524;48.132;8.518;2024-02-21T13:21:18;11.60;99.90
20726;DHT22;10524;48.132;8.518;2024-02-21T13:23:44;11.70;99.90
20726;DHT22;10524;48.132;8.518;2024-02-21T13:26:10;11.70;99.90
20726;DHT22;10524;48.132;8.518;2024-02-21T13:28:36;11.30;99.90
20726;DHT22;10524;48.132;8.518;2024-02-21T13:31:02;11.30;99.90
20726;DHT22;10524;48.132;8.518;2024-02-21T13:33:28;11.30;99.90
20726;DHT22;10524;48.132;8.518;2024-02-21T13:35:54;11.20;99.90
20726;DHT22;10524;48.132;8.518;2024-02-21T13:38:20;11.20;99.90
20726;DHT22;10524;48.132;8.518;2024-02-21T13:40:45;11.00;99.90
20726;DHT22;10524;48.132;8.518;2024-02-21T13:43:11;10.80;99.90
20726;DHT22;10524;48.132;8.518;2024-02-21T13:45:38;10.90;99.90
20726;DHT22;10524;48.132;8.518;2024-02-21T13:48:04;10.90;99.90
20726;DHT22;10524;48.132;8.518;2024-02-21T13:50:32;10.80;99.90
20726;DHT22;10524;48.132;8.518;2024-02-21T13:52:59;10.70;99.90
20726;DHT22;10524;48.132;8.518;2024-02-21T13:55:26;10.70;99.90
20726;DHT22;10524;48.132;8.518;2024-02-21T13:57:52;10.60;99.90
20726;DHT22;10524;48.132;8.518;2024-02-21T14:00:18;10.50;99.90
20726;DHT22;10524;48.132;8.518;2024-02-21T14:02:46;10.40;99.90
20726;DHT22;10524;48.132;8.518;2024-02-21T14:05:12;10.40;99.90
20726;DHT22;10524;48.132;8.518;2024-02-21T14:07:38;10.40;99.90
20726;DHT22;10524;48.132;8.518;2024-02-21T14:10:04;10.50;99.90
20726;DHT22;10524;48.132;8.518;2024-02-21T14:12:30;10.40;99.90
20726;DHT22;10524;48.132;8.518;2024-02-21T14:14:57;10.20;99.90
20726;DHT22;10524;48.132;8.518;2024-02-21T14:17:24;10.10;99.90
20726;DHT22;10524;48.132;8.518;2024-02-21T14:19:50;10.10;99.90
20726;DHT22;10524;48.132;8.518;2024-02-21T14:22:17;10.20;99.90
20726;DHT22;10524;48.132;8.518;2024-02-21T14:24:43;10.10;99.90
20726;DHT22;10524;48.132;8.518;2024-02-21T14:27:08;10.20;99.90
20726;DHT22;10524;48.132;8.518;2024-02-21T14:29:34;10.00;99.90
20726;DHT22;10524;48.132;8.518;2024-02-21T14:32:00;9.90;99.90
20726;DHT22;10524;48.132;8.518;2024-02-21T14:34:26;9.90;99.90
20726;DHT22;10524;48.132;8.518;2024-02-21T14:36:52;9.80;99.90
20726;DHT22;10524;48.132;8.518;2024-02-21T14:39:17;9.80;99.90
20726;DHT22;10524;48.132;8.518;2024-02-21T14:41:43;9.90;99.90
20726;DHT22;10524;48.132;8.518;2024-02-21T14:44:09;9.80;99.90
20726;DHT22;10524;48.132;8.518;2024-02-21T14:46:36;9.90;99.90
20726;DHT22;10524;48.132;8.518;2024-02-21T14:49:03;10.00;99.90
20726;DHT22;10524;48.132;8.518;2024-02-21T14:51:29;10.20;99.90
20726;DHT22;10524;48.132;8.518;2024-02-21T14:53:56;10.20;99.90
20726;DHT22;10524;48.132;8.518;2024-02-21T14:56:22;10.10;99.90
20726;DHT22;10524;48.132;8.518;2024-02-21T14:58:49;10.00;99.90
20726;DHT22;10524;48.132;8.518;2024-02-21T15:01:15;9.90;99.90
20726;DHT22;10524;48.132;8.518;2024-02-21T15:03:41;9.80;99.90
20726;DHT22;10524;48.132;8.518;2024-02-21T15:06:08;9.60;99.90
20726;DHT22;10524;48.132;8.518;2024-02-21T15:08:34;9.50;99.90
20726;DHT22;10524;48.132;8.518;2024-02-21T15:11:01;9.40;99.90
20726;DHT22;10524;48.132;8.518;2024-02-21T15:13:27;9.40;99.90
20726;DHT22;10524;48.132;8.518;2024-02-21T15:15:53;9.30;99.90
20726;DHT22;10524;48.132;8.518;2024-02-21T15:18:20;9.30;99.90
20726;DHT22;10524;48.132;8.518;2024-02-21T15:20:46;9.20;99.90
20726;DHT22;10524;48.132;8.518;2024-02-21T15:23:11;9.20;99.90
20726;DHT22;10524;48.132;8.518;2024-02-21T15:25:37;9.20;99.90
20726;DHT22;10524;48.132;8.518;2024-02-21T15:28:03;9.10;99.90
20726;DHT22;10524;48.132;8.518;2024-02-21T15:30:32;9.10;99.90
20726;DHT22;10524;48.132;8.518;2024-02-21T15:32:59;9.00;99.90
20726;DHT22;10524;48.132;8.518;2024-02-21T15:35:31;8.90;99.90
20726;DHT22;10524;48.132;8.518;2024-02-21T15:37:57;8.90;99.90
20726;DHT22;10524;48.132;8.518;2024-02-21T15:40:23;8.80;99.90
20726;DHT22;10524;48.132;8.518;2024-02-21T15:42:49;8.80;99.90
20726;DHT22;10524;48.132;8.518;2024-02-21T15:45:15;8.70;99.90
20726;DHT22;10524;48.132;8.518;2024-02-21T15:47:41;8.70;99.90